No particular awareness of the weather is required.    There are no Weather-warnings


Meteo18 Weather Cam more information Meteo18 Weather Cam


Thunder radar more information blitzortung!


Rain radar more information rain snow radar


Visit our other weather sites:

Template documentation
and downloads

And another site



Weather Underground History page Text

Daily Summary for December 6, 2017 Units:  English    Metric   Both
« Previous Day
Next Day »
Daily Weekly Monthly Yearly Custom
  High: Low: Average:
Temperature: TemperatureC °F -1.5 °F 1 °F
Dew Point: DewpointC °F -1.9 °F 0.3 °F
Humidity: Humidity % 92 % 95 %
Wind Speed: WindSpeedKMH mph 0.0 mph 1.1 mph
Wind Gust: WindSpeedGustKMH mph - -
Wind:- - SSE
Pressure: PressurehPa in 1029.7 in -
Precipitation: 0.3 in    
Historical Graphs
 
 
Tabular Data for December 6, 2017
Time Temperature Dew Point Pressure Wind Wind Speed Wind Gust Humidity Rainfall Rate (Hourly)
TemperatureC °F DewpointC °F PressurehPa in Calm     Humidity % HourlyPrecipMM in
00:02 0.5 °F -0.1 °F 1038.1 in Calm     96 % 0.3 in
00:07 0.4 °F -0.2 °F 1038.1 in Calm     96 % 0.3 in
00:12 0.3 °F -0.3 °F 1038.1 in Calm     96 % 0.3 in
00:17 0.2 °F -0.4 °F 1038.1 in Calm     96 % 0.3 in
00:22 0.2 °F -0.4 °F 1038.1 in Calm     96 % 0.3 in
00:32 0.0 °F -0.6 °F 1038.1 in Calm   1.6 mph 96 % 0.3 in
00:42 -0.2 °F -0.8 °F 1038.1 in Calm     96 % 0.3 in
00:47 -0.3 °F -0.9 °F 1038.1 in Calm     96 % 0.3 in
00:52 -0.4 °F -1.0 °F 1038.1 in Calm   1.6 mph 96 % 0.3 in
00:57 -0.6 °F -1.2 °F 1038.1 in Calm   1.6 mph 96 % 0.3 in
01:02 -0.7 °F -1.3 °F 1037.8 in Calm   1.6 mph 96 % 0.0 in
01:07 -0.8 °F -1.4 °F 1037.8 in Calm   1.6 mph 96 % 0.0 in
01:12 -0.8 °F -1.2 °F 1037.8 in NNW 1.6 mph 1.6 mph 97 % 0.0 in
01:22 -0.9 °F -1.3 °F 1037.8 in Calm   1.6 mph 97 % 0.0 in
01:32 -1.1 °F -1.5 °F 1037.8 in Calm   1.6 mph 97 % 0.0 in
01:37 -1.1 °F -1.5 °F 1037.5 in Calm   1.6 mph 97 % 0.0 in
01:42 -1.2 °F -1.6 °F 1037.5 in Calm   1.6 mph 97 % 0.0 in
01:47 -1.3 °F -1.7 °F 1037.5 in Calm     97 % 0.0 in
01:52 -1.4 °F -1.8 °F 1037.5 in Calm     97 % 0.0 in
02:02 -1.5 °F -1.9 °F 1037.5 in Calm     97 % 0.0 in
02:07 -1.5 °F -1.9 °F 1037.5 in Calm   1.6 mph 97 % 0.0 in
02:12 -1.4 °F -1.8 °F 1037.5 in North 1.6 mph 1.6 mph 97 % 0.0 in
02:17 -1.3 °F -1.7 °F 1037.5 in Calm   1.6 mph 97 % 0.0 in
02:22 -1.3 °F -1.7 °F 1037.5 in Calm   1.6 mph 97 % 0.0 in
02:27 -1.4 °F -1.8 °F 1037.5 in Calm   1.6 mph 97 % 0.0 in
02:32 -1.4 °F -1.8 °F 1037.5 in Calm   1.6 mph 97 % 0.0 in
02:37 -1.4 °F -1.8 °F 1037.5 in Calm   1.6 mph 97 % 0.0 in
02:42 -1.4 °F -1.8 °F 1037.1 in Calm   1.6 mph 97 % 0.0 in
02:47 -1.2 °F -1.6 °F 1037.1 in Calm   1.6 mph 97 % 0.0 in
02:52 -1.2 °F -1.6 °F 1037.1 in Calm     97 % 0.0 in
02:57 -1.3 °F -1.7 °F 1037.1 in Calm     97 % 0.0 in
03:02 -1.2 °F -1.6 °F 1037.1 in Calm     97 % 0.0 in
03:12 -1.0 °F -1.4 °F 1037.1 in Calm     97 % 0.0 in
03:17 -1.1 °F -1.5 °F 1037.1 in Calm     97 % 0.0 in
03:27 -1.1 °F -1.5 °F 1037.1 in Calm     97 % 0.0 in
03:37 -1.1 °F -1.5 °F 1037.1 in Calm     97 % 0.0 in
03:42 -0.7 °F -1.1 °F 1037.1 in Calm     97 % 0.0 in
03:47 -0.6 °F -1.0 °F 1037.1 in Calm     97 % 0.0 in
03:52 -0.7 °F -1.0 °F 1037.1 in Calm     98 % 0.0 in
03:57 -0.8 °F -1.2 °F 1037.1 in Calm     97 % 0.0 in
04:02 -1.1 °F -1.5 °F 1037.1 in Calm     97 % 0.0 in
04:07 -1.0 °F -1.4 °F 1037.1 in Calm   1.6 mph 97 % 0.0 in
04:12 -0.6 °F -1.0 °F 1037.1 in Calm   1.6 mph 97 % 0.0 in
04:17 -0.3 °F -0.6 °F 1037.1 in Calm   1.6 mph 98 % 0.0 in
04:22 -0.2 °F -0.5 °F 1037.1 in Calm   1.6 mph 98 % 0.0 in
04:27 -0.2 °F -0.5 °F 1037.1 in East 1.6 mph 1.6 mph 98 % 0.0 in
04:32 0.1 °F -0.2 °F 1036.8 in East 1.6 mph 3.2 mph 98 % 0.0 in
04:37 0.1 °F -0.2 °F 1036.8 in Calm   3.2 mph 98 % 0.0 in
04:42 0.2 °F -0.1 °F 1036.8 in Calm   3.2 mph 98 % 0.0 in
04:47 0.3 °F 0.0 °F 1036.8 in East 1.6 mph 6.4 mph 98 % 0.0 in
04:52 0.4 °F 0.1 °F 1036.8 in SE 3.2 mph 6.4 mph 98 % 0.0 in
04:57 0.4 °F 0.1 °F 1036.8 in Calm   6.4 mph 98 % 0.0 in
05:02 0.4 °F 0.1 °F 1036.8 in Calm   3.2 mph 98 % 0.0 in
05:07 0.3 °F 0.0 °F 1036.8 in Calm   3.2 mph 98 % 0.0 in
05:17 0.4 °F 0.0 °F 1036.8 in Calm   1.6 mph 97 % 0.0 in
05:22 0.3 °F -0.1 °F 1036.8 in Calm     97 % 0.0 in
05:32 0.4 °F 0.0 °F 1036.5 in Calm     97 % 0.0 in
05:42 0.4 °F 0.0 °F 1036.5 in Calm     97 % 0.0 in
05:47 0.4 °F 0.0 °F 1036.5 in Calm     97 % 0.0 in
05:52 0.3 °F -0.1 °F 1036.5 in Calm     97 % 0.0 in
06:02 0.2 °F -0.2 °F 1036.5 in Calm     97 % 0.0 in
06:12 0.2 °F -0.2 °F 1036.5 in Calm     97 % 0.0 in
06:17 0.2 °F -0.2 °F 1036.5 in Calm     97 % 0.0 in
06:22 0.1 °F -0.3 °F 1036.5 in Calm     97 % 0.0 in
06:32 0.1 °F -0.3 °F 1036.5 in Calm     97 % 0.0 in
06:37 0.0 °F -0.4 °F 1036.5 in Calm     97 % 0.0 in
06:42 0.1 °F -0.3 °F 1036.5 in Calm     97 % 0.0 in
06:47 0.1 °F -0.3 °F 1036.5 in Calm     97 % 0.0 in
06:52 0.2 °F -0.2 °F 1036.5 in Calm     97 % 0.0 in
07:02 0.2 °F -0.2 °F 1036.5 in Calm     97 % 0.0 in
07:12 0.1 °F -0.3 °F 1036.1 in Calm     97 % 0.0 in
07:17 0.1 °F -0.3 °F 1036.1 in Calm     97 % 0.0 in
07:22 0.1 °F -0.3 °F 1036.1 in Calm     97 % 0.0 in
07:32 0.1 °F -0.3 °F 1036.1 in Calm     97 % 0.0 in
07:42 -0.1 °F -0.5 °F 1036.1 in NNE 3.2 mph   97 % 0.0 in
07:52 0.1 °F -0.3 °F 1036.1 in North 1.6 mph 3.2 mph 97 % 0.0 in
07:57 0.2 °F -0.2 °F 1036.1 in Calm   3.2 mph 97 % 0.0 in
08:02 0.2 °F -0.2 °F 1036.1 in Calm   1.6 mph 97 % 0.0 in
08:07 0.2 °F -0.2 °F 1035.8 in Calm   1.6 mph 97 % 0.0 in
08:12 0.1 °F -0.3 °F 1035.8 in Calm   1.6 mph 97 % 0.0 in
08:17 0.1 °F -0.3 °F 1036.1 in Calm   1.6 mph 97 % 0.0 in
08:22 0.2 °F -0.2 °F 1036.1 in Calm   1.6 mph 97 % 0.0 in
08:32 0.1 °F -0.3 °F 1036.1 in Calm   1.6 mph 97 % 0.0 in
08:42 0.1 °F -0.3 °F 1036.1 in Calm   1.6 mph 97 % 0.0 in
08:47 0.1 °F -0.3 °F 1036.1 in Calm     97 % 0.0 in
08:57 -0.1 °F -0.5 °F 1036.1 in Calm     97 % 0.0 in
09:07 -0.1 °F -0.5 °F 1035.8 in Calm   1.6 mph 97 % 0.0 in
09:17 -0.1 °F -0.5 °F 1035.8 in Calm   1.6 mph 97 % 0.0 in
09:22 -0.1 °F -0.5 °F 1035.8 in Calm   1.6 mph 97 % 0.0 in
09:32 -0.1 °F -0.5 °F 1035.8 in WNW 1.6 mph 1.6 mph 97 % 0.0 in
09:42 0.1 °F -0.3 °F 1035.8 in Calm   1.6 mph 97 % 0.0 in
09:52 0.2 °F -0.2 °F 1035.8 in Calm   1.6 mph 97 % 0.0 in
09:57 0.3 °F -0.1 °F 1035.8 in Calm     97 % 0.0 in
10:02 0.4 °F 0.1 °F 1035.8 in Calm     98 % 0.0 in
10:12 0.4 °F 0.1 °F 1035.8 in Calm   1.6 mph 98 % 0.0 in
10:17 0.6 °F 0.3 °F 1035.8 in Calm   1.6 mph 98 % 0.3 in
10:22 0.7 °F 0.4 °F 1035.8 in Calm   1.6 mph 98 % 0.3 in
10:32 0.9 °F 0.6 °F 1035.8 in Calm     98 % 0.3 in
10:37 1.0 °F 0.7 °F 1035.8 in Calm     98 % 0.3 in
10:42 1.1 °F 0.8 °F 1036.1 in Calm     98 % 0.3 in
10:47 1.2 °F 0.9 °F 1036.1 in Calm     98 % 0.3 in
10:52 1.2 °F 0.9 °F 1036.1 in Calm     98 % 0.3 in
11:02 1.2 °F 0.9 °F 1036.1 in Calm     98 % 0.3 in
11:12 1.3 °F 0.9 °F 1035.8 in Calm   1.6 mph 97 % 0.3 in
11:17 1.3 °F 0.9 °F 1035.8 in Calm   1.6 mph 97 % 0.0 in
11:22 1.4 °F 1.0 °F 1035.8 in Calm   1.6 mph 97 % 0.0 in
11:27 1.4 °F 1.0 °F 1035.8 in South 1.6 mph 3.2 mph 97 % 0.0 in
11:32 1.5 °F 1.1 °F 1035.8 in Calm   3.2 mph 97 % 0.0 in
11:37 1.5 °F 1.1 °F 1035.4 in Calm   3.2 mph 97 % 0.0 in
11:42 1.6 °F 1.2 °F 1035.4 in Calm   3.2 mph 97 % 0.0 in
11:47 1.6 °F 1.2 °F 1035.1 in SSE 1.6 mph 3.2 mph 97 % 0.0 in
11:52 1.6 °F 1.2 °F 1035.1 in Calm   3.2 mph 97 % 0.0 in
12:02 1.7 °F 1.3 °F 1035.1 in Calm   4.8 mph 97 % 0.0 in
12:12 1.8 °F 1.4 °F 1034.8 in SSE 3.2 mph 4.8 mph 97 % 0.0 in
12:17 1.8 °F 1.4 °F 1034.8 in SSE 1.6 mph 6.4 mph 97 % 0.0 in
12:22 1.8 °F 1.4 °F 1034.8 in Calm   6.4 mph 97 % 0.0 in
12:32 1.9 °F 1.5 °F 1034.8 in Calm   4.8 mph 97 % 0.0 in
12:42 1.9 °F 1.5 °F 1034.8 in ESE 1.6 mph 4.8 mph 97 % 0.0 in
12:47 1.9 °F 1.5 °F 1034.8 in Calm   4.8 mph 97 % 0.0 in
12:52 2.1 °F 1.7 °F 1034.8 in Calm   3.2 mph 97 % 0.0 in
12:57 2.1 °F 1.7 °F 1034.4 in SE 1.6 mph 4.8 mph 97 % 0.0 in
13:02 2.1 °F 1.7 °F 1034.4 in SE 4.8 mph 4.8 mph 97 % 0.0 in
13:07 2.1 °F 1.7 °F 1034.4 in SE 1.6 mph 4.8 mph 97 % 0.0 in
13:12 2.1 °F 1.7 °F 1034.4 in ESE 1.6 mph 4.8 mph 97 % 0.0 in
13:17 2.1 °F 1.7 °F 1034.1 in SSE 1.6 mph 8.0 mph 97 % 0.0 in
13:22 2.2 °F 1.8 °F 1034.1 in ESE 3.2 mph 8.0 mph 97 % 0.0 in
13:27 2.3 °F 1.9 °F 1034.1 in ESE 1.6 mph 8.0 mph 97 % 0.0 in
13:32 2.2 °F 1.8 °F 1034.1 in ESE 1.6 mph 6.4 mph 97 % 0.0 in
13:42 2.2 °F 1.8 °F 1033.7 in SE 1.6 mph 9.7 mph 97 % 0.0 in
13:47 2.2 °F 1.8 °F 1033.7 in Calm   9.7 mph 97 % 0.0 in
13:52 2.3 °F 1.9 °F 1033.7 in SE 1.6 mph 8.0 mph 97 % 0.0 in
13:57 2.3 °F 1.9 °F 1033.7 in SE 4.8 mph 8.0 mph 97 % 0.0 in
14:02 2.4 °F 2.0 °F 1033.7 in Calm   6.4 mph 97 % 0.0 in
14:07 2.4 °F 1.8 °F 1033.7 in Calm   6.4 mph 96 % 0.0 in
14:12 2.4 °F 1.8 °F 1033.7 in SSE 1.6 mph 6.4 mph 96 % 0.0 in
14:17 2.4 °F 1.8 °F 1033.7 in Calm   6.4 mph 96 % 0.0 in
14:22 2.4 °F 1.8 °F 1033.7 in Calm   6.4 mph 96 % 0.0 in
14:27 2.4 °F 1.8 °F 1033.4 in Calm   6.4 mph 96 % 0.0 in
14:32 2.4 °F 1.8 °F 1033.4 in SE 4.8 mph 6.4 mph 96 % 0.0 in
14:42 2.3 °F 1.6 °F 1033.4 in ESE 3.2 mph 8.0 mph 95 % 0.0 in
14:47 2.3 °F 1.6 °F 1033.4 in Calm   8.0 mph 95 % 0.0 in
14:52 2.3 °F 1.4 °F 1033.1 in East 1.6 mph 8.0 mph 94 % 0.0 in
14:57 2.4 °F 1.5 °F 1033.1 in SSE 1.6 mph 4.8 mph 94 % 0.0 in
15:02 2.3 °F 1.4 °F 1033.1 in ESE 4.8 mph 4.8 mph 94 % 0.0 in
15:07 2.3 °F 1.4 °F 1033.1 in Calm   6.4 mph 94 % 0.0 in
15:12 2.3 °F 1.4 °F 1033.1 in South 1.6 mph 6.4 mph 94 % 0.0 in
15:17 2.3 °F 1.3 °F 1033.1 in SSE 1.6 mph 6.4 mph 93 % 0.0 in
15:22 2.3 °F 1.3 °F 1033.1 in Calm   6.4 mph 93 % 0.0 in
15:27 2.3 °F 1.3 °F 1033.1 in SE 3.2 mph 6.4 mph 93 % 0.0 in
15:32 2.3 °F 1.3 °F 1033.1 in East 1.6 mph 9.7 mph 93 % 0.0 in
15:42 2.3 °F 1.3 °F 1033.1 in SE 3.2 mph 9.7 mph 93 % 0.0 in
15:47 2.2 °F 1.2 °F 1033.1 in ESE 3.2 mph 8.0 mph 93 % 0.0 in
15:52 2.3 °F 1.3 °F 1033.1 in Calm   8.0 mph 93 % 0.0 in
15:57 2.3 °F 1.3 °F 1032.7 in East 3.2 mph 8.0 mph 93 % 0.0 in
16:02 2.3 °F 1.3 °F 1032.7 in East 1.6 mph 6.4 mph 93 % 0.0 in
16:07 2.3 °F 1.3 °F 1032.7 in East 1.6 mph 3.2 mph 93 % 0.0 in
16:12 2.3 °F 1.3 °F 1032.7 in SE 1.6 mph 6.4 mph 93 % 0.0 in
16:17 2.3 °F 1.3 °F 1032.7 in SE 1.6 mph 6.4 mph 93 % 0.0 in
16:22 2.2 °F 1.2 °F 1032.7 in SE 1.6 mph 6.4 mph 93 % 0.0 in
16:27 2.2 °F 1.0 °F 1032.7 in SE 1.6 mph 9.7 mph 92 % 0.0 in
16:32 2.3 °F 1.3 °F 1032.7 in Calm   9.7 mph 93 % 0.0 in
16:42 2.2 °F 1.0 °F 1032.7 in South 4.8 mph 6.4 mph 92 % 0.0 in
16:47 2.2 °F 1.0 °F 1032.7 in SSE 3.2 mph 8.0 mph 92 % 0.0 in
16:52 2.2 °F 1.0 °F 1032.7 in Calm   8.0 mph 92 % 0.0 in
17:02 2.2 °F 1.0 °F 1032.7 in Calm   6.4 mph 92 % 0.0 in
17:07 2.2 °F 1.0 °F 1032.7 in Calm   3.2 mph 92 % 0.0 in
17:12 2.2 °F 1.2 °F 1032.7 in Calm   3.2 mph 93 % 0.0 in
17:17 2.2 °F 1.2 °F 1032.4 in Calm   3.2 mph 93 % 0.0 in
17:22 2.2 °F 1.2 °F 1032.4 in SE 1.6 mph 4.8 mph 93 % 0.0 in
17:32 2.1 °F 1.1 °F 1032.4 in ESE 3.2 mph 6.4 mph 93 % 0.0 in
17:37 2.2 °F 1.2 °F 1032.4 in Calm   6.4 mph 93 % 0.0 in
17:42 2.1 °F 0.9 °F 1032.4 in SE 1.6 mph 6.4 mph 92 % 0.0 in
17:47 2.0 °F 0.8 °F 1032.4 in SE 3.2 mph 8.0 mph 92 % 0.0 in
17:52 2.1 °F 0.9 °F 1032.4 in Calm   9.7 mph 92 % 0.0 in
17:57 2.1 °F 0.9 °F 1032.1 in SE 3.2 mph 9.7 mph 92 % 0.0 in
18:02 2.1 °F 0.9 °F 1032.1 in Calm   9.7 mph 92 % 0.0 in
18:12 2.1 °F 0.9 °F 1032.1 in SE 1.6 mph 6.4 mph 92 % 0.0 in
18:17 2.1 °F 0.9 °F 1032.1 in Calm   6.4 mph 92 % 0.0 in
18:22 2.1 °F 0.9 °F 1032.1 in South 3.2 mph 6.4 mph 92 % 0.0 in
18:32 2.0 °F 0.8 °F 1032.1 in SE 1.6 mph 6.4 mph 92 % 0.0 in
18:42 2.1 °F 0.9 °F 1032.1 in SSE 1.6 mph 6.4 mph 92 % 0.0 in
18:47 2.1 °F 0.9 °F 1032.1 in SE 1.6 mph 6.4 mph 92 % 0.0 in
18:52 2.1 °F 0.9 °F 1031.7 in SSE 1.6 mph 4.8 mph 92 % 0.0 in
18:57 2.1 °F 0.9 °F 1031.7 in ESE 3.2 mph 4.8 mph 92 % 0.0 in
19:02 2.1 °F 0.9 °F 1031.7 in Calm   6.4 mph 92 % 0.0 in
19:07 2.1 °F 0.9 °F 1031.7 in SE 3.2 mph 8.0 mph 92 % 0.0 in
19:12 2.1 °F 0.9 °F 1031.7 in SE 1.6 mph 8.0 mph 92 % 0.0 in
19:17 2.1 °F 0.9 °F 1031.7 in Calm   8.0 mph 92 % 0.0 in
19:22 2.1 °F 0.9 °F 1031.7 in Calm   6.4 mph 92 % 0.0 in
19:27 2.1 °F 0.9 °F 1031.7 in SE 1.6 mph 4.8 mph 92 % 0.0 in
19:32 2.0 °F 0.8 °F 1031.7 in SSW 4.8 mph 4.8 mph 92 % 0.0 in
19:42 2.0 °F 0.8 °F 1031.7 in SSE 1.6 mph 4.8 mph 92 % 0.0 in
19:47 2.0 °F 0.8 °F 1031.4 in Calm   6.4 mph 92 % 0.0 in
19:52 2.0 °F 0.8 °F 1031.4 in SE 3.2 mph 6.4 mph 92 % 0.0 in
19:57 2.0 °F 0.8 °F 1031.4 in SE 3.2 mph 6.4 mph 92 % 0.0 in
20:02 2.0 °F 0.8 °F 1031.4 in South 6.4 mph 6.4 mph 92 % 0.0 in
20:07 2.0 °F 0.8 °F 1031.4 in SE 3.2 mph 9.7 mph 92 % 0.0 in
20:12 2.0 °F 0.8 °F 1031.4 in SE 3.2 mph 9.7 mph 92 % 0.0 in
20:17 2.0 °F 0.8 °F 1031.4 in East 3.2 mph 9.7 mph 92 % 0.0 in
20:27 2.0 °F 1.0 °F 1031.4 in ESE 4.8 mph 8.0 mph 93 % 0.0 in
20:32 2.0 °F 1.0 °F 1031.4 in Calm   8.0 mph 93 % 0.0 in
20:42 1.9 °F 0.9 °F 1031.0 in Calm   6.4 mph 93 % 0.0 in
20:47 1.9 °F 0.9 °F 1031.0 in SSE 3.2 mph 4.8 mph 93 % 0.0 in
20:57 1.9 °F 0.9 °F 1031.0 in SSE 4.8 mph 8.0 mph 93 % 0.0 in
21:02 1.9 °F 0.9 °F 1031.0 in Calm   8.0 mph 93 % 0.0 in
21:12 1.8 °F 0.8 °F 1031.0 in SSE 1.6 mph 8.0 mph 93 % 0.0 in
21:17 1.8 °F 0.8 °F 1031.0 in South 3.2 mph 6.4 mph 93 % 0.0 in
21:22 1.8 °F 0.8 °F 1031.0 in South 3.2 mph 8.0 mph 93 % 0.0 in
21:27 1.7 °F 0.7 °F 1031.0 in Calm   9.7 mph 93 % 0.0 in
21:32 1.7 °F 0.7 °F 1031.0 in South 4.8 mph 9.7 mph 93 % 0.0 in
21:42 1.7 °F 0.8 °F 1031.0 in SE 3.2 mph 8.0 mph 94 % 0.0 in
21:47 1.6 °F 0.7 °F 1031.0 in Calm   8.0 mph 94 % 0.0 in
21:52 1.6 °F 0.7 °F 1031.0 in SSW 1.6 mph 6.4 mph 94 % 0.0 in
21:57 1.5 °F 0.6 °F 1030.7 in SSW 3.2 mph 9.7 mph 94 % 0.0 in
22:02 1.4 °F 0.5 °F 1030.7 in South 1.6 mph 9.7 mph 94 % 0.0 in
22:07 1.4 °F 0.5 °F 1030.7 in SSE 1.6 mph 9.7 mph 94 % 0.0 in
22:12 1.4 °F 0.5 °F 1030.4 in SE 1.6 mph 9.7 mph 94 % 0.0 in
22:17 1.3 °F 0.4 °F 1030.7 in South 6.4 mph 9.7 mph 94 % 0.0 in
22:22 1.3 °F 0.4 °F 1030.7 in Calm   11.3 mph 94 % 0.0 in
22:27 1.3 °F 0.4 °F 1030.4 in SE 1.6 mph 11.3 mph 94 % 0.0 in
22:32 1.3 °F 0.4 °F 1030.4 in SE 3.2 mph 11.3 mph 94 % 0.0 in
22:42 1.2 °F 0.5 °F 1030.4 in SSW 6.4 mph 11.3 mph 95 % 0.0 in
23:02 1.2 °F 0.5 °F 1030.4 in South 3.2 mph 8.0 mph 95 % 0.0 in
23:07 1.2 °F 0.5 °F 1030.4 in SSE 1.6 mph 8.0 mph 95 % 0.0 in
23:12 1.1 °F 0.4 °F 1030.0 in SE 1.6 mph 9.7 mph 95 % 0.0 in
23:17 1.1 °F 0.4 °F 1030.0 in SW 1.6 mph 9.7 mph 95 % 0.0 in
23:22 1.1 °F 0.4 °F 1030.0 in SSE 1.6 mph 9.7 mph 95 % 0.0 in
23:27 1.1 °F 0.4 °F 1030.0 in SW 1.6 mph 9.7 mph 95 % 0.0 in
23:32 1.1 °F 0.4 °F 1030.0 in SSE 1.6 mph 9.7 mph 95 % 0.0 in
23:37 1.0 °F 0.3 °F 1030.0 in SSW 3.2 mph 9.7 mph 95 % 0.0 in
23:42 0.9 °F 0.2 °F 1030.0 in South 1.6 mph 11.3 mph 95 % 0.0 in
23:47 0.9 °F 0.2 °F 1030.0 in SSE 1.6 mph 11.3 mph 95 % 0.0 in
23:52 0.9 °F 0.2 °F 1029.7 in SSE 3.2 mph 11.3 mph 95 % 0.0 in
23:57 0.9 °F 0.2 °F 1029.7 in SSW 1.6 mph 8.0 mph 95 % 0.0 in
Meteo18
Compliments of Weather Underground - 4 mb

Script developed by  Jim McMurry - jmcmurry@mwt.net Adapted for the template by  Wim van der Kuil - Leuven-Template.eu

You find our weather info also at:

European Weather Network

Weather Underground

Equipment we use:

Weather-station
Davis Vue

Weather-program
Meteobridge

Weather-server
Raspberry PI 2 B+

Provider
1 and 1

Davis Vue

Meteobridge

Raspberry PI 2 B+

1 and 1